createdAt,value
2017-08-15T00:00:11.249Z,18.90
2017-08-15T00:00:59.317Z,18.85
2017-08-15T00:01:48.335Z,18.84
2017-08-15T00:02:36.299Z,18.81
2017-08-15T00:03:24.381Z,18.79
2017-08-15T00:04:13.530Z,18.75
2017-08-15T00:05:01.523Z,18.70
2017-08-15T00:05:49.591Z,18.69
2017-08-15T00:06:38.378Z,18.68
2017-08-15T00:07:26.472Z,18.67
2017-08-15T00:08:14.521Z,18.64
2017-08-15T00:09:03.794Z,18.62
2017-08-15T00:09:51.681Z,18.59
2017-08-15T00:10:39.859Z,18.53
2017-08-15T00:11:27.701Z,18.54
2017-08-15T00:12:15.724Z,18.54
2017-08-15T00:13:10.011Z,18.53
2017-08-15T00:13:58.861Z,18.47
2017-08-15T00:14:46.897Z,18.44
2017-08-15T00:15:41.178Z,18.49
2017-08-15T00:16:28.888Z,18.46
2017-08-15T00:17:18.164Z,18.47
2017-08-15T00:18:06.281Z,18.44
2017-08-15T00:19:00.212Z,18.50
2017-08-15T00:19:48.350Z,18.47
2017-08-15T00:20:36.360Z,18.47
2017-08-15T00:21:25.502Z,18.56
2017-08-15T00:22:13.444Z,18.58
2017-08-15T00:23:01.296Z,18.54
2017-08-15T00:23:50.337Z,18.54
2017-08-15T00:24:38.373Z,18.54
2017-08-15T00:25:27.732Z,18.48
2017-08-15T00:26:15.769Z,18.49
2017-08-15T00:27:09.710Z,18.46
2017-08-15T00:28:04.750Z,18.39
2017-08-15T00:28:52.853Z,18.40
2017-08-15T00:29:40.796Z,18.34
2017-08-15T00:30:29.996Z,18.32
2017-08-15T00:31:17.733Z,18.30
2017-08-15T00:32:05.852Z,18.30
2017-08-15T00:32:54.906Z,18.32
2017-08-15T00:33:42.898Z,18.30
2017-08-15T00:34:30.985Z,18.28
2017-08-15T00:35:20.055Z,18.28
2017-08-15T00:36:08.206Z,18.24
2017-08-15T00:36:56.177Z,18.21
2017-08-15T00:37:44.288Z,18.17
2017-08-15T00:38:32.359Z,18.20
2017-08-15T00:39:20.199Z,18.19
2017-08-15T00:40:08.523Z,18.13
2017-08-15T00:41:02.332Z,18.16
2017-08-15T00:41:50.362Z,18.20
2017-08-15T00:42:38.435Z,18.20
2017-08-15T00:43:27.432Z,18.21
2017-08-15T00:44:15.456Z,18.19
2017-08-15T00:45:03.659Z,18.15
2017-08-15T00:45:52.549Z,18.12
2017-08-15T00:46:40.784Z,18.09
2017-08-15T00:47:28.757Z,18.14
2017-08-15T00:48:17.749Z,18.16
2017-08-15T00:49:05.728Z,18.14
2017-08-15T00:49:53.846Z,18.08
2017-08-15T00:50:42.105Z,18.07
2017-08-15T00:51:30.952Z,18.07
2017-08-15T00:52:18.992Z,18.06
2017-08-15T00:53:08.140Z,18.04
2017-08-15T00:53:57.171Z,18.02
2017-08-15T00:54:46.165Z,18.03
2017-08-15T00:55:34.400Z,18.01
2017-08-15T00:56:23.214Z,18.01
2017-08-15T00:57:11.475Z,18.01
2017-08-15T00:57:59.490Z,17.99
2017-08-15T00:58:47.293Z,17.95
2017-08-15T00:59:36.347Z,17.95
2017-08-15T01:00:24.354Z,17.91
2017-08-15T01:01:13.546Z,17.95
2017-08-15T01:02:07.569Z,17.96
2017-08-15T01:03:07.515Z,18.02
2017-08-15T01:04:01.923Z,17.98
2017-08-15T01:05:01.581Z,17.94
2017-08-15T01:05:56.631Z,17.90
2017-08-15T01:06:56.695Z,17.86
2017-08-15T01:07:50.918Z,17.89
2017-08-15T01:08:50.751Z,17.84
2017-08-15T01:09:46.252Z,17.82
2017-08-15T01:10:40.854Z,17.79
2017-08-15T01:11:40.840Z,17.82
2017-08-15T01:12:36.059Z,17.79
2017-08-15T01:13:36.010Z,17.80
2017-08-15T01:14:35.930Z,17.80
2017-08-15T01:15:36.244Z,17.80
2017-08-15T01:16:30.165Z,17.81
2017-08-15T01:17:30.364Z,17.80
2017-08-15T01:18:25.414Z,17.82
2017-08-15T01:19:20.277Z,17.78
2017-08-15T01:20:21.431Z,17.78
2017-08-15T01:21:21.483Z,17.84
2017-08-15T01:22:16.433Z,17.86
2017-08-15T01:23:11.482Z,17.86
2017-08-15T01:24:05.539Z,17.91
2017-08-15T01:24:53.615Z,17.90
2017-08-15T01:25:41.671Z,17.86
2017-08-15T01:26:29.686Z,17.87
2017-08-15T01:27:18.558Z,17.87
2017-08-15T01:28:06.611Z,17.88
2017-08-15T01:28:54.601Z,17.88
2017-08-15T01:29:43.692Z,17.87
2017-08-15T01:30:31.907Z,17.82
2017-08-15T01:31:31.721Z,17.83
2017-08-15T01:32:31.788Z,17.83
2017-08-15T01:33:25.797Z,17.83
2017-08-15T01:34:25.950Z,17.82
2017-08-15T01:35:21.030Z,17.86
2017-08-15T01:36:14.946Z,17.90
2017-08-15T01:37:10.216Z,17.84
2017-08-15T01:38:04.197Z,17.83
2017-08-15T01:38:58.093Z,17.90
2017-08-15T01:39:59.302Z,17.93
2017-08-15T01:41:00.366Z,17.90
2017-08-15T01:41:49.279Z,17.91
2017-08-15T01:42:44.364Z,17.94
2017-08-15T01:43:33.494Z,17.96
2017-08-15T01:44:22.253Z,17.96
2017-08-15T01:45:16.379Z,17.96
2017-08-15T01:46:05.389Z,17.95
2017-08-15T01:46:53.501Z,17.91
2017-08-15T01:47:42.438Z,17.92
2017-08-15T01:48:37.478Z,17.91
2017-08-15T01:49:37.529Z,17.88
2017-08-15T01:50:26.642Z,17.85
2017-08-15T01:51:14.639Z,17.86
2017-08-15T01:52:02.732Z,17.82
2017-08-15T01:52:50.730Z,17.80
2017-08-15T01:53:38.774Z,17.80
2017-08-15T01:54:33.911Z,17.92
2017-08-15T01:55:21.848Z,17.88
2017-08-15T01:56:09.888Z,17.86
2017-08-15T01:56:57.931Z,17.89
2017-08-15T01:57:47.048Z,17.85
2017-08-15T01:58:41.052Z,17.84
2017-08-15T01:59:29.352Z,17.80
2017-08-15T02:00:17.320Z,17.75
2017-08-15T02:01:05.112Z,17.76
2017-08-15T02:02:06.431Z,17.76
2017-08-15T02:03:06.307Z,17.74
2017-08-15T02:03:54.248Z,17.72
2017-08-15T02:04:42.328Z,17.75
2017-08-15T02:05:30.635Z,17.71
2017-08-15T02:06:19.415Z,17.72
2017-08-15T02:07:13.449Z,17.73
2017-08-15T02:08:02.600Z,17.74
2017-08-15T02:08:50.560Z,17.68
2017-08-15T02:09:38.602Z,17.66
2017-08-15T02:10:26.830Z,17.63
2017-08-15T02:11:14.657Z,17.63
2017-08-15T02:12:02.682Z,17.62
2017-08-15T02:12:50.829Z,17.59
2017-08-15T02:13:38.858Z,17.60
2017-08-15T02:14:32.882Z,17.62
2017-08-15T02:15:34.250Z,17.62
2017-08-15T02:16:22.911Z,17.63
2017-08-15T02:17:11.079Z,17.61
2017-08-15T02:18:05.206Z,17.59
2017-08-15T02:18:54.203Z,17.62
2017-08-15T02:19:43.097Z,17.58
2017-08-15T02:20:31.447Z,17.56
2017-08-15T02:21:20.190Z,17.57
2017-08-15T02:22:08.411Z,17.59
2017-08-15T02:22:56.541Z,17.58
2017-08-15T02:23:44.324Z,17.60
2017-08-15T02:24:32.544Z,17.55
2017-08-15T02:25:26.617Z,17.54
2017-08-15T02:26:14.426Z,17.55
2017-08-15T02:27:02.538Z,17.53
2017-08-15T02:27:50.539Z,17.52
2017-08-15T02:28:38.614Z,17.52
2017-08-15T02:29:26.656Z,17.52
2017-08-15T02:30:15.898Z,17.49
2017-08-15T02:31:03.752Z,17.50
2017-08-15T02:31:51.807Z,17.47
2017-08-15T02:32:40.899Z,17.46
2017-08-15T02:33:28.847Z,17.42
2017-08-15T02:34:16.929Z,17.40
2017-08-15T02:35:06.131Z,17.36
2017-08-15T02:35:53.969Z,17.37
2017-08-15T02:36:42.142Z,17.39
2017-08-15T02:37:31.015Z,17.38
2017-08-15T02:38:19.360Z,17.34
2017-08-15T02:39:07.194Z,17.31
2017-08-15T02:39:56.283Z,17.28
2017-08-15T02:40:44.519Z,17.26
2017-08-15T02:41:32.391Z,17.28
2017-08-15T02:42:21.393Z,17.26
2017-08-15T02:43:09.450Z,17.26
2017-08-15T02:43:57.533Z,17.24
2017-08-15T02:44:46.534Z,17.22
2017-08-15T02:45:34.754Z,17.16
2017-08-15T02:46:22.571Z,17.15
2017-08-15T02:47:11.746Z,17.14
2017-08-15T02:47:59.792Z,17.14
2017-08-15T02:48:47.695Z,17.13
2017-08-15T02:49:36.811Z,17.12
2017-08-15T02:50:25.062Z,17.09
2017-08-15T02:51:12.963Z,17.09
2017-08-15T02:52:01.887Z,17.06
2017-08-15T02:52:50.052Z,17.03
2017-08-15T02:53:38.054Z,16.99
2017-08-15T02:54:27.015Z,16.96
2017-08-15T02:55:15.311Z,16.93
2017-08-15T02:56:03.108Z,16.96
2017-08-15T02:56:51.330Z,16.98
2017-08-15T02:57:40.403Z,16.99
2017-08-15T02:58:28.241Z,16.98
2017-08-15T02:59:17.520Z,16.98
2017-08-15T03:00:05.568Z,17.01
2017-08-15T03:00:53.616Z,17.06
2017-08-15T03:01:42.675Z,17.02
2017-08-15T03:02:30.696Z,17.04
2017-08-15T03:03:18.737Z,16.99
2017-08-15T03:04:07.762Z,16.98
2017-08-15T03:04:55.838Z,16.93
2017-08-15T03:05:43.795Z,16.85
2017-08-15T03:06:32.935Z,16.86
2017-08-15T03:07:20.961Z,16.84
2017-08-15T03:08:08.945Z,16.80
2017-08-15T03:08:57.016Z,16.79
2017-08-15T03:09:46.165Z,16.83
2017-08-15T03:10:34.178Z,16.80
2017-08-15T03:11:22.166Z,16.84
2017-08-15T03:12:11.192Z,16.87
2017-08-15T03:12:59.212Z,16.92
2017-08-15T03:13:48.353Z,16.97
2017-08-15T03:14:36.442Z,16.95
2017-08-15T03:15:24.449Z,16.93
2017-08-15T03:16:13.508Z,16.97
2017-08-15T03:17:01.450Z,16.96
2017-08-15T03:17:49.537Z,16.98
2017-08-15T03:18:38.539Z,16.96
2017-08-15T03:19:26.626Z,16.94
2017-08-15T03:20:14.652Z,16.92
2017-08-15T03:21:03.744Z,16.95
2017-08-15T03:21:51.771Z,16.93
2017-08-15T03:22:39.848Z,16.91
2017-08-15T03:23:28.808Z,16.90
2017-08-15T03:24:16.776Z,16.87
2017-08-15T03:25:04.956Z,16.86
2017-08-15T03:25:53.059Z,16.81
2017-08-15T03:26:42.001Z,16.82
2017-08-15T03:27:30.102Z,16.82
2017-08-15T03:28:19.063Z,16.83
2017-08-15T03:29:07.235Z,16.81
2017-08-15T03:29:55.254Z,16.82
2017-08-15T03:30:44.243Z,16.83
2017-08-15T03:31:32.191Z,16.86
2017-08-15T03:32:20.280Z,16.86
2017-08-15T03:33:08.339Z,16.84
2017-08-15T03:33:57.456Z,16.80
2017-08-15T03:34:45.519Z,16.79
2017-08-15T03:35:33.585Z,16.73
2017-08-15T03:36:22.550Z,16.78
2017-08-15T03:37:10.603Z,16.78
2017-08-15T03:37:59.640Z,16.78
2017-08-15T03:38:47.652Z,16.78
2017-08-15T03:39:35.730Z,16.81
2017-08-15T03:40:24.944Z,16.83
2017-08-15T03:41:12.834Z,16.85
2017-08-15T03:42:00.814Z,16.83
2017-08-15T03:42:49.960Z,16.80
2017-08-15T03:43:37.877Z,16.74
2017-08-15T03:44:26.000Z,16.74
2017-08-15T03:45:14.801Z,16.77
2017-08-15T03:46:02.917Z,16.82
2017-08-15T03:46:50.982Z,16.78
2017-08-15T03:47:39.921Z,16.74
2017-08-15T03:48:28.025Z,16.70
2017-08-15T03:49:16.115Z,16.65
2017-08-15T03:50:05.328Z,16.63
2017-08-15T03:50:53.351Z,16.60
2017-08-15T03:51:41.416Z,16.61
2017-08-15T03:52:30.453Z,16.61
2017-08-15T03:53:18.433Z,16.60
2017-08-15T03:54:06.585Z,16.61
2017-08-15T03:54:55.561Z,16.58
2017-08-15T03:55:43.593Z,16.58
2017-08-15T03:56:31.662Z,16.58
2017-08-15T03:57:20.756Z,16.55
2017-08-15T03:58:08.769Z,16.53
2017-08-15T03:58:56.801Z,16.53
2017-08-15T03:59:45.881Z,16.52
2017-08-15T04:00:33.868Z,16.53
2017-08-15T04:01:21.927Z,16.55
2017-08-15T04:02:10.992Z,16.54
2017-08-15T04:02:59.054Z,16.56
2017-08-15T04:03:47.051Z,16.54
2017-08-15T04:04:36.078Z,16.54
2017-08-15T04:05:24.165Z,16.52
2017-08-15T04:06:13.229Z,16.51
2017-08-15T04:07:01.366Z,16.52
2017-08-15T04:07:49.286Z,16.46
2017-08-15T04:08:38.377Z,16.46
2017-08-15T04:09:26.425Z,16.47
2017-08-15T04:10:14.406Z,16.52
2017-08-15T04:11:03.550Z,16.54
2017-08-15T04:11:51.540Z,16.57
2017-08-15T04:12:40.576Z,16.62
2017-08-15T04:13:28.629Z,16.59
2017-08-15T04:14:16.698Z,16.60
2017-08-15T04:15:05.794Z,16.59
2017-08-15T04:15:53.736Z,16.61
2017-08-15T04:16:41.849Z,16.58
2017-08-15T04:17:29.800Z,16.62
2017-08-15T04:18:18.882Z,16.60
2017-08-15T04:19:07.001Z,16.64
2017-08-15T04:19:56.018Z,16.59
2017-08-15T04:20:44.023Z,16.62
2017-08-15T04:21:32.090Z,16.61
2017-08-15T04:22:21.218Z,16.54
2017-08-15T04:23:09.239Z,16.55
2017-08-15T04:23:58.305Z,16.52
2017-08-15T04:24:46.291Z,16.52
2017-08-15T04:25:34.372Z,16.51
2017-08-15T04:26:23.340Z,16.50
2017-08-15T04:27:11.461Z,16.49
2017-08-15T04:27:59.488Z,16.50
2017-08-15T04:28:48.496Z,16.50
2017-08-15T04:29:36.548Z,16.50
2017-08-15T04:30:25.540Z,16.48
2017-08-15T04:31:13.689Z,16.50
2017-08-15T04:32:01.646Z,16.48
2017-08-15T04:32:50.784Z,16.51
2017-08-15T04:33:38.838Z,16.52
2017-08-15T04:34:26.845Z,16.54
2017-08-15T04:35:15.843Z,16.48
2017-08-15T04:36:03.919Z,16.56
2017-08-15T04:36:53.031Z,16.51
2017-08-15T04:37:41.026Z,16.51
2017-08-15T04:38:29.022Z,16.50
2017-08-15T04:39:18.109Z,16.53
2017-08-15T04:40:06.238Z,16.48
2017-08-15T04:40:54.164Z,16.56
2017-08-15T04:41:42.227Z,16.52
2017-08-15T04:42:31.294Z,16.52
2017-08-15T04:43:19.302Z,16.52
2017-08-15T04:44:08.415Z,16.49
2017-08-15T04:44:56.386Z,16.47
2017-08-15T04:45:44.518Z,16.54
2017-08-15T04:46:32.486Z,16.53
2017-08-15T04:47:26.295Z,16.53
2017-08-15T04:48:14.527Z,16.60
2017-08-15T04:49:08.431Z,16.59
2017-08-15T04:49:56.665Z,16.67
2017-08-15T04:50:44.567Z,16.71
2017-08-15T04:51:32.740Z,16.70
2017-08-15T04:52:20.714Z,16.70
2017-08-15T04:53:09.625Z,16.79
2017-08-15T04:53:57.767Z,16.79
2017-08-15T04:54:45.993Z,16.76
2017-08-15T04:55:40.760Z,16.79
2017-08-15T04:56:35.001Z,16.82
2017-08-15T04:57:23.874Z,16.80
2017-08-15T04:58:12.906Z,16.85
2017-08-15T04:59:01.251Z,16.90
2017-08-15T04:59:49.212Z,16.91
2017-08-15T05:00:37.354Z,16.91
2017-08-15T05:01:26.283Z,16.89
2017-08-15T05:02:14.343Z,16.95
2017-08-15T05:03:08.343Z,16.96
2017-08-15T05:03:56.470Z,16.97
2017-08-15T05:04:45.507Z,17.02
2017-08-15T05:05:34.557Z,17.01
2017-08-15T05:06:28.582Z,17.03
2017-08-15T05:07:17.538Z,17.04
2017-08-15T05:08:05.653Z,17.14
2017-08-15T05:08:53.783Z,17.15
2017-08-15T05:09:42.765Z,17.17
2017-08-15T05:10:30.887Z,17.14
2017-08-15T05:11:19.876Z,17.18
2017-08-15T05:12:08.940Z,17.16
2017-08-15T05:13:02.963Z,17.20
2017-08-15T05:13:51.943Z,17.26
2017-08-15T05:14:46.009Z,17.32
2017-08-15T05:15:41.160Z,17.36
2017-08-15T05:16:41.065Z,17.51
2017-08-15T05:17:41.120Z,17.57
2017-08-15T05:18:41.211Z,17.66
2017-08-15T05:19:47.277Z,17.67
2017-08-15T05:20:42.323Z,17.74
2017-08-15T05:21:31.385Z,17.84
2017-08-15T05:22:25.389Z,17.86
2017-08-15T05:23:25.332Z,18.00
2017-08-15T05:24:13.471Z,18.10
2017-08-15T05:25:07.443Z,18.21
2017-08-15T05:25:55.516Z,18.34
2017-08-15T05:26:44.587Z,18.43
2017-08-15T05:27:32.606Z,18.45
2017-08-15T05:28:26.633Z,18.31
2017-08-15T05:29:26.706Z,18.36
2017-08-15T05:30:21.742Z,18.48
2017-08-15T05:31:16.871Z,18.66
2017-08-15T05:32:10.811Z,18.87
2017-08-15T05:33:10.858Z,18.94
2017-08-15T05:34:05.926Z,18.94
2017-08-15T05:34:54.947Z,19.10
2017-08-15T05:35:49.034Z,19.24
2017-08-15T05:36:43.102Z,19.42
2017-08-15T05:37:32.062Z,19.68
2017-08-15T05:38:27.201Z,19.91
2017-08-15T05:39:27.164Z,20.29
2017-08-15T05:40:22.169Z,20.62
2017-08-15T05:41:17.219Z,20.76
2017-08-15T05:42:06.291Z,20.88
2017-08-15T05:43:06.407Z,21.06
2017-08-15T05:44:06.498Z,21.34
2017-08-15T05:44:55.384Z,21.49
2017-08-15T05:45:44.543Z,21.54
2017-08-15T05:46:44.585Z,21.28
2017-08-15T05:47:38.663Z,20.92
2017-08-15T05:48:32.576Z,20.75
2017-08-15T05:49:32.670Z,20.31
2017-08-15T05:50:20.817Z,20.38
2017-08-15T05:51:15.758Z,19.94
2017-08-15T05:52:15.789Z,19.79
2017-08-15T05:53:04.877Z,19.79
2017-08-15T05:53:58.957Z,19.95
2017-08-15T05:54:59.019Z,20.31
2017-08-15T05:55:53.013Z,20.15
2017-08-15T05:56:47.967Z,19.92
2017-08-15T05:57:43.076Z,20.01
2017-08-15T05:58:37.145Z,19.84
2017-08-15T05:59:25.263Z,19.92
2017-08-15T06:00:14.347Z,19.11
2017-08-15T06:01:09.339Z,18.82
2017-08-15T06:01:57.356Z,18.56
2017-08-15T06:02:51.400Z,18.68
2017-08-15T06:03:45.527Z,18.70
2017-08-15T06:04:45.503Z,18.48
2017-08-15T06:05:34.519Z,18.64
2017-08-15T06:06:23.662Z,18.98
2017-08-15T06:07:17.674Z,19.21
2017-08-15T06:08:05.718Z,19.44
2017-08-15T06:09:00.766Z,19.54
2017-08-15T06:09:49.812Z,19.83
2017-08-15T06:10:43.873Z,20.23
2017-08-15T06:11:37.961Z,20.87
2017-08-15T06:12:32.973Z,21.38
2017-08-15T06:13:27.026Z,21.60
2017-08-15T06:14:21.133Z,21.48
2017-08-15T06:15:10.113Z,21.82
2017-08-15T06:15:59.213Z,21.79
2017-08-15T06:16:54.197Z,22.16
2017-08-15T06:17:54.311Z,21.68
2017-08-15T06:18:49.333Z,21.80
2017-08-15T06:19:43.473Z,21.71
2017-08-15T06:20:37.460Z,22.22
2017-08-15T06:21:31.465Z,21.58
2017-08-15T06:22:26.576Z,21.32
2017-08-15T06:23:20.566Z,21.43
2017-08-15T06:24:09.615Z,21.87
2017-08-15T06:25:09.762Z,21.70
2017-08-15T06:26:09.755Z,21.92
2017-08-15T06:27:03.828Z,22.48
2017-08-15T06:27:57.835Z,22.24
2017-08-15T06:28:45.890Z,22.18
2017-08-15T06:29:39.936Z,21.92
2017-08-15T06:30:29.048Z,21.34
2017-08-15T06:31:23.036Z,21.05
2017-08-15T06:32:17.089Z,21.46
2017-08-15T06:33:06.200Z,21.61
2017-08-15T06:33:55.260Z,21.40
2017-08-15T06:34:49.259Z,21.12
2017-08-15T06:35:38.411Z,20.83
2017-08-15T06:36:27.349Z,20.58
2017-08-15T06:37:22.463Z,20.73
2017-08-15T06:38:17.534Z,20.94
2017-08-15T06:39:11.646Z,21.00
2017-08-15T06:40:00.663Z,21.18
2017-08-15T06:40:48.802Z,21.19
2017-08-15T06:41:48.777Z,21.10
2017-08-15T06:42:42.819Z,21.08
2017-08-15T06:43:37.935Z,22.04
2017-08-15T06:44:31.984Z,22.66
2017-08-15T06:45:32.015Z,23.38
2017-08-15T06:46:21.123Z,23.97
2017-08-15T06:47:10.086Z,23.60
2017-08-15T06:47:59.184Z,23.50
2017-08-15T06:48:53.222Z,23.45
2017-08-15T06:49:47.260Z,23.90
2017-08-15T06:50:42.329Z,24.11
2017-08-15T06:51:36.408Z,24.83
2017-08-15T06:52:30.422Z,25.08
2017-08-15T06:53:19.498Z,24.93
2017-08-15T06:54:13.610Z,25.43
2017-08-15T06:55:08.578Z,26.14
2017-08-15T06:56:03.755Z,26.32
2017-08-15T06:56:52.721Z,26.84
2017-08-15T06:57:47.789Z,27.40
2017-08-15T06:58:41.848Z,27.67
2017-08-15T06:59:35.874Z,28.22
2017-08-15T07:00:24.940Z,28.49
2017-08-15T07:01:20.189Z,28.65
2017-08-15T07:02:15.185Z,28.31
2017-08-15T07:03:10.333Z,28.54
2017-08-15T07:04:10.290Z,28.17
2017-08-15T07:05:04.390Z,27.69
2017-08-15T07:05:53.383Z,27.18
2017-08-15T07:06:47.581Z,27.24
2017-08-15T07:07:36.601Z,27.50
2017-08-15T07:08:30.652Z,27.76
2017-08-15T07:09:24.743Z,27.75
2017-08-15T07:10:13.839Z,27.31
2017-08-15T07:11:07.791Z,27.33
2017-08-15T07:12:01.883Z,27.70
2017-08-15T07:12:56.004Z,27.96
2017-08-15T07:13:49.982Z,27.87
2017-08-15T07:14:51.044Z,28.07
2017-08-15T07:15:40.156Z,27.85
2017-08-15T07:16:28.150Z,27.45
2017-08-15T07:17:34.198Z,27.19
2017-08-15T07:18:28.477Z,26.84
2017-08-15T07:19:22.325Z,26.37
2017-08-15T07:20:10.461Z,25.94
2017-08-15T07:21:04.443Z,25.28
2017-08-15T07:21:53.464Z,24.99
2017-08-15T07:22:48.595Z,24.68
2017-08-15T07:23:37.633Z,24.02
2017-08-15T07:24:25.642Z,23.72
2017-08-15T07:25:19.774Z,23.63
2017-08-15T07:26:14.815Z,23.35
2017-08-15T07:27:03.915Z,23.98
2017-08-15T07:28:03.967Z,24.12
2017-08-15T07:28:52.995Z,23.85
2017-08-15T07:29:47.130Z,24.71
2017-08-15T07:30:42.113Z,24.68
2017-08-15T07:31:42.121Z,24.54
2017-08-15T07:32:36.265Z,25.42
2017-08-15T07:33:37.301Z,24.72
2017-08-15T07:34:26.490Z,24.98
2017-08-15T07:35:20.451Z,25.18
2017-08-15T07:36:08.472Z,25.82
2017-08-15T07:37:02.244Z,26.09
2017-08-15T07:37:51.651Z,26.56
2017-08-15T07:38:45.690Z,26.74
2017-08-15T07:39:39.729Z,26.40
2017-08-15T07:40:28.831Z,26.22
2017-08-15T07:41:17.826Z,26.41
2017-08-15T07:42:11.885Z,26.62
2017-08-15T07:43:05.949Z,26.96
2017-08-15T07:44:01.087Z,26.93
2017-08-15T07:44:56.092Z,26.63
2017-08-15T07:45:50.153Z,26.49
2017-08-15T07:46:44.146Z,26.60
2017-08-15T07:47:32.282Z,26.73
2017-08-15T07:48:21.300Z,26.79
2017-08-15T07:49:10.304Z,26.96
2017-08-15T07:49:59.439Z,27.12
2017-08-15T07:50:53.507Z,27.12
2017-08-15T07:51:48.586Z,26.94
2017-08-15T07:52:36.652Z,27.22
2017-08-15T07:53:30.739Z,27.70
2017-08-15T07:54:19.805Z,27.79
2017-08-15T07:55:19.828Z,27.79
2017-08-15T07:56:13.929Z,27.57
2017-08-15T07:57:02.888Z,26.90
2017-08-15T07:57:52.009Z,26.65
2017-08-15T07:58:41.051Z,27.00
2017-08-15T07:59:35.054Z,27.28
2017-08-15T08:00:35.159Z,27.24
2017-08-15T08:01:23.272Z,27.40
2017-08-15T08:02:17.308Z,27.72
2017-08-15T08:03:11.400Z,27.98
2017-08-15T08:03:59.465Z,28.12
2017-08-15T08:04:54.526Z,27.85
2017-08-15T08:05:43.575Z,28.06
2017-08-15T08:06:32.629Z,28.20
2017-08-15T08:07:26.618Z,28.45
2017-08-15T08:08:15.699Z,28.78
2017-08-15T08:09:04.814Z,28.96
2017-08-15T08:09:58.897Z,29.27
2017-08-15T08:10:52.932Z,29.44
2017-08-15T08:11:42.041Z,29.41
2017-08-15T08:12:31.114Z,29.70
2017-08-15T08:13:20.257Z,29.79
2017-08-15T08:14:09.315Z,29.78
2017-08-15T08:14:58.396Z,29.55
2017-08-15T08:15:52.587Z,29.43
2017-08-15T08:16:40.595Z,29.63
2017-08-15T08:17:34.619Z,29.78
2017-08-15T08:18:28.647Z,29.89
2017-08-15T08:19:22.767Z,29.80
2017-08-15T08:20:22.900Z,29.84
2017-08-15T08:21:23.965Z,29.77
2017-08-15T08:22:19.027Z,29.92
2017-08-15T08:23:13.083Z,29.74
2017-08-15T08:24:13.146Z,29.78
2017-08-15T08:25:07.209Z,29.92
2017-08-15T08:25:55.358Z,29.82
2017-08-15T08:26:44.502Z,29.54
2017-08-15T08:27:32.510Z,29.46
2017-08-15T08:28:21.634Z,29.41
2017-08-15T08:29:15.704Z,29.43
2017-08-15T08:30:09.840Z,29.30
2017-08-15T08:30:58.781Z,29.57
2017-08-15T08:31:46.945Z,29.89
2017-08-15T08:32:42.024Z,30.13
2017-08-15T08:33:31.068Z,30.23
2017-08-15T08:34:26.189Z,30.22
2017-08-15T08:35:20.240Z,30.21
2017-08-15T08:36:14.345Z,30.26
2017-08-15T08:37:08.399Z,29.61
2017-08-15T08:37:57.466Z,29.56
2017-08-15T08:38:51.611Z,29.75
2017-08-15T08:39:46.700Z,30.10
2017-08-15T08:40:34.682Z,30.03
2017-08-15T08:41:28.783Z,29.51
2017-08-15T08:42:22.942Z,29.39
2017-08-15T08:43:28.967Z,29.74
2017-08-15T08:44:30.070Z,30.00
2017-08-15T08:45:30.159Z,30.16
2017-08-15T08:46:25.213Z,30.15
2017-08-15T08:47:20.273Z,30.11
2017-08-15T08:48:09.490Z,29.63
2017-08-15T08:49:04.377Z,28.95
2017-08-15T08:49:59.502Z,28.92
2017-08-15T08:50:59.579Z,28.64
2017-08-15T08:51:59.604Z,28.44
2017-08-15T08:52:54.779Z,28.15
2017-08-15T08:53:54.851Z,27.92
2017-08-15T08:54:48.993Z,27.68
2017-08-15T08:55:43.050Z,27.48
2017-08-15T08:56:38.085Z,27.31
2017-08-15T08:57:33.136Z,27.29
2017-08-15T08:58:33.181Z,27.18
2017-08-15T08:59:22.259Z,27.16
2017-08-15T09:00:17.582Z,26.74
2017-08-15T09:01:11.490Z,26.65
2017-08-15T09:02:00.507Z,26.34
2017-08-15T09:02:54.696Z,26.10
2017-08-15T09:03:42.746Z,25.74
2017-08-15T09:04:30.900Z,25.72
2017-08-15T09:05:24.940Z,25.80
2017-08-15T09:06:18.879Z,26.09
2017-08-15T09:07:18.983Z,26.20
2017-08-15T09:08:13.045Z,25.42
2017-08-15T09:09:07.239Z,25.53
2017-08-15T09:10:01.219Z,25.19
2017-08-15T09:11:01.280Z,25.14
2017-08-15T09:11:55.290Z,25.66
2017-08-15T09:12:55.424Z,24.82
2017-08-15T09:13:44.398Z,25.62
2017-08-15T09:14:33.511Z,25.36
2017-08-15T09:15:21.610Z,24.88
2017-08-15T09:16:16.599Z,25.73
2017-08-15T09:17:05.727Z,25.59
2017-08-15T09:18:05.800Z,25.81
2017-08-15T09:18:54.926Z,25.65
2017-08-15T09:19:49.939Z,25.94
2017-08-15T09:20:39.023Z,25.91
2017-08-15T09:21:33.048Z,26.44
2017-08-15T09:22:33.124Z,26.32
2017-08-15T09:23:27.167Z,26.48
2017-08-15T09:24:27.291Z,25.87
2017-08-15T09:25:21.335Z,26.26
2017-08-15T09:26:10.396Z,26.30
2017-08-15T09:27:05.480Z,25.95
2017-08-15T09:28:00.573Z,26.38
2017-08-15T09:29:00.700Z,25.77
2017-08-15T09:30:00.775Z,25.90
2017-08-15T09:31:01.848Z,26.67
2017-08-15T09:32:02.906Z,27.07
2017-08-15T09:32:58.000Z,27.02
2017-08-15T09:33:53.045Z,27.02
2017-08-15T09:34:47.088Z,26.82
2017-08-15T09:35:41.176Z,27.01
2017-08-15T09:36:35.188Z,26.99
2017-08-15T09:37:24.324Z,26.87
2017-08-15T09:38:12.364Z,27.47
2017-08-15T09:39:06.444Z,27.57
2017-08-15T09:40:00.542Z,27.22
2017-08-15T09:40:55.697Z,27.48
2017-08-15T09:41:44.709Z,27.37
2017-08-15T09:42:38.858Z,26.88
2017-08-15T09:43:26.857Z,26.81
2017-08-15T09:44:20.922Z,26.63
2017-08-15T09:45:16.102Z,26.49
2017-08-15T09:46:05.095Z,26.55
2017-08-15T09:46:54.131Z,26.23
2017-08-15T09:47:48.352Z,26.56
2017-08-15T09:48:42.298Z,26.44
2017-08-15T09:49:42.355Z,26.65
2017-08-15T09:50:30.455Z,26.94
2017-08-15T09:51:25.571Z,26.85
2017-08-15T09:52:19.649Z,27.07
2017-08-15T09:53:19.769Z,26.38
2017-08-15T09:54:19.801Z,26.85
2017-08-15T09:55:08.859Z,26.54
2017-08-15T09:56:02.903Z,26.62
2017-08-15T09:56:52.010Z,26.77
2017-08-15T09:57:40.139Z,26.90
2017-08-15T09:58:34.211Z,27.06
2017-08-15T09:59:29.265Z,27.16
2017-08-15T10:00:18.490Z,27.15
2017-08-15T10:01:07.396Z,27.08
2017-08-15T10:02:07.428Z,27.11
2017-08-15T10:03:07.532Z,26.88
2017-08-15T10:04:01.683Z,27.07
2017-08-15T10:04:50.741Z,26.98
2017-08-15T10:05:44.720Z,26.79
2017-08-15T10:06:44.820Z,26.43
2017-08-15T10:07:45.930Z,26.35
2017-08-15T10:08:40.976Z,27.06
2017-08-15T10:09:36.125Z,26.90
2017-08-15T10:10:24.126Z,26.86
2017-08-15T10:11:19.256Z,27.12
2017-08-15T10:12:08.283Z,26.94
2017-08-15T10:13:02.330Z,26.82
2017-08-15T10:13:51.445Z,26.74
2017-08-15T10:14:39.560Z,27.10
2017-08-15T10:15:34.606Z,27.48
2017-08-15T10:16:34.735Z,27.53
2017-08-15T10:17:34.807Z,27.32
2017-08-15T10:18:29.851Z,27.05
2017-08-15T10:19:18.073Z,27.02
2017-08-15T10:20:11.972Z,27.00
2017-08-15T10:21:12.060Z,27.46
2017-08-15T10:22:06.142Z,27.18
2017-08-15T10:22:55.274Z,27.17
2017-08-15T10:23:44.358Z,27.05
2017-08-15T10:24:38.392Z,26.90
2017-08-15T10:25:32.455Z,26.78
2017-08-15T10:26:27.560Z,27.11
2017-08-15T10:27:21.627Z,27.11
2017-08-15T10:28:15.731Z,26.94
2017-08-15T10:29:16.763Z,26.93
2017-08-15T10:30:10.839Z,26.57
2017-08-15T10:31:04.932Z,26.68
2017-08-15T10:31:59.038Z,26.61
2017-08-15T10:32:59.102Z,26.68
2017-08-15T10:34:05.138Z,26.38
2017-08-15T10:35:05.242Z,26.39
2017-08-15T10:35:59.250Z,26.66
2017-08-15T10:36:54.374Z,26.64
2017-08-15T10:37:54.484Z,26.15
2017-08-15T10:38:48.544Z,26.10
2017-08-15T10:39:43.618Z,26.19
2017-08-15T10:40:43.643Z,26.30
2017-08-15T10:41:37.718Z,26.04
2017-08-15T10:42:31.849Z,25.85
2017-08-15T10:43:26.908Z,26.11
2017-08-15T10:44:21.998Z,25.35
2017-08-15T10:45:10.075Z,25.44
2017-08-15T10:46:05.109Z,25.66
2017-08-15T10:47:00.216Z,24.57
2017-08-15T10:48:00.256Z,24.13
2017-08-15T10:49:01.473Z,24.10
2017-08-15T10:49:55.393Z,24.15
2017-08-15T10:50:43.516Z,23.60
2017-08-15T10:51:37.558Z,23.56
2017-08-15T10:52:37.639Z,23.51
2017-08-15T10:53:37.716Z,23.45
2017-08-15T10:54:31.778Z,23.63
2017-08-15T10:55:19.921Z,23.02
2017-08-15T10:56:08.895Z,22.95
2017-08-15T10:56:57.990Z,22.48
2017-08-15T10:57:52.087Z,22.39
2017-08-15T10:58:40.167Z,22.33
2017-08-15T10:59:34.229Z,22.40
2017-08-15T11:00:22.280Z,22.54
2017-08-15T11:01:16.413Z,22.29
2017-08-15T11:02:11.470Z,22.24
2017-08-15T11:03:06.511Z,21.97
2017-08-15T11:04:06.596Z,21.94
2017-08-15T11:05:06.699Z,22.04
2017-08-15T11:06:00.656Z,22.16